createdAt,value
2018-04-17T00:00:43.759Z,96460.75
2018-04-17T00:03:13.344Z,96465.81
2018-04-17T00:05:42.926Z,96468.98
2018-04-17T00:08:12.558Z,96464.67
2018-04-17T00:10:42.134Z,96463.13
2018-04-17T00:13:11.700Z,96461.78
2018-04-17T00:15:41.070Z,96460.61
2018-04-17T00:18:11.045Z,96466.64
2018-04-17T00:20:40.619Z,96460.81
2018-04-17T00:23:10.196Z,96465.30
2018-04-17T00:25:40.186Z,96459.45
2018-04-17T00:28:09.763Z,96453.19
2018-04-17T00:30:39.347Z,96459.80
2018-04-17T00:33:08.929Z,96460.16
2018-04-17T00:35:38.703Z,96457.63
2018-04-17T00:38:08.282Z,96459.77
2018-04-17T00:40:37.863Z,96454.64
2018-04-17T00:43:07.843Z,96455.97
2018-04-17T00:45:37.453Z,96460.79
2018-04-17T00:48:07.032Z,96462.30
2018-04-17T00:50:36.610Z,96458.41
2018-04-17T00:53:22.805Z,96463.13
2018-04-17T00:55:52.779Z,96458.45
2018-04-17T00:58:22.381Z,96451.80
2018-04-17T01:00:51.709Z,96451.64
2018-04-17T01:03:21.285Z,96453.02
2018-04-17T01:05:50.863Z,96447.39
2018-04-17T01:08:20.437Z,96453.77
2018-04-17T01:10:50.417Z,96457.96
2018-04-17T01:13:20.004Z,96465.32
2018-04-17T01:15:49.608Z,96472.66
2018-04-17T01:18:19.195Z,96480.25
2018-04-17T01:20:48.773Z,96478.86
2018-04-17T01:23:18.353Z,96480.43
2018-04-17T01:25:47.937Z,96488.22
2018-04-17T01:28:17.515Z,96481.81
2018-04-17T01:30:47.511Z,96481.60
2018-04-17T01:33:17.091Z,96487.67
2018-04-17T01:35:46.682Z,96486.80
2018-04-17T01:38:16.892Z,96491.89
2018-04-17T01:40:46.478Z,96489.06
2018-04-17T01:43:16.455Z,96495.99
2018-04-17T01:45:46.052Z,96497.21
2018-04-17T01:48:15.640Z,96500.36
2018-04-17T01:50:45.250Z,96507.32
2018-04-17T01:53:14.835Z,96513.52
2018-04-17T01:55:44.418Z,96510.45
2018-04-17T01:58:14.406Z,96519.75
2018-04-17T02:00:43.991Z,96522.51
2018-04-17T02:03:13.580Z,96519.66
2018-04-17T02:05:42.826Z,96520.27
2018-04-17T02:08:12.411Z,96516.69
2018-04-17T02:10:41.997Z,96519.60
2018-04-17T02:13:11.588Z,96522.97
2018-04-17T02:15:41.555Z,96523.56
2018-04-17T02:18:11.142Z,96526.73
2018-04-17T02:20:40.481Z,96530.57
2018-04-17T02:23:10.057Z,96526.27
2018-04-17T02:25:39.638Z,96532.67
2018-04-17T02:28:09.216Z,96528.05
2018-04-17T02:30:38.798Z,96527.19
2018-04-17T02:33:08.386Z,96529.77
2018-04-17T02:35:37.973Z,96525.46
2018-04-17T02:38:07.549Z,96534.64
2018-04-17T02:40:37.130Z,96533.84
2018-04-17T02:43:06.714Z,96530.33
2018-04-17T02:45:36.309Z,96533.63
2018-04-17T02:48:05.896Z,96538.20
2018-04-17T02:50:35.655Z,96532.72
2018-04-17T02:53:05.254Z,96536.34
2018-04-17T02:55:34.832Z,96537.60
2018-04-17T02:58:04.411Z,96541.46
2018-04-17T03:00:33.994Z,96539.67
2018-04-17T03:03:03.579Z,96543.31
2018-04-17T03:05:33.186Z,96538.19
2018-04-17T03:08:02.765Z,96544.40
2018-04-17T03:10:32.352Z,96541.48
2018-04-17T03:13:01.934Z,96547.45
2018-04-17T03:15:31.526Z,96547.09
2018-04-17T03:18:01.158Z,96544.04
2018-04-17T03:20:31.154Z,96544.90
2018-04-17T03:23:00.744Z,96553.27
2018-04-17T03:25:30.330Z,96556.48
2018-04-17T03:27:59.683Z,96560.32
2018-04-17T03:30:29.033Z,96559.25
2018-04-17T03:32:58.395Z,96561.72
2018-04-17T03:35:27.986Z,96565.95
2018-04-17T03:37:57.589Z,96571.14
2018-04-17T03:40:27.164Z,96572.84
2018-04-17T03:42:56.756Z,96567.17
2018-04-17T03:45:26.732Z,96569.63
2018-04-17T03:47:56.328Z,96571.89
2018-04-17T03:50:25.927Z,96569.77
2018-04-17T03:52:55.509Z,96567.47
2018-04-17T03:55:25.102Z,96566.93
2018-04-17T03:57:55.084Z,96563.92
2018-04-17T04:00:24.654Z,96569.41
2018-04-17T04:02:54.460Z,96572.78
2018-04-17T04:05:24.050Z,96574.33
2018-04-17T04:07:54.018Z,96579.97
2018-04-17T04:10:23.600Z,96582.36
2018-04-17T04:12:53.188Z,96584.52
2018-04-17T04:15:22.786Z,96587.90
2018-04-17T04:18:09.413Z,96594.07
2018-04-17T04:20:55.936Z,96585.17
2018-04-17T04:26:36.579Z,96597.34
2018-04-17T04:29:06.558Z,96594.64
2018-04-17T04:31:36.200Z,96601.11
2018-04-17T04:34:06.543Z,96600.82
2018-04-17T04:36:36.153Z,96604.34
2018-04-17T04:39:04.842Z,96607.64
2018-04-17T04:41:34.458Z,96611.81
2018-04-17T04:44:04.043Z,96614.93
2018-04-17T04:46:34.021Z,96613.89
2018-04-17T04:49:03.607Z,96619.70
2018-04-17T04:51:33.181Z,96616.94
2018-04-17T04:54:03.168Z,96618.15
2018-04-17T04:56:32.760Z,96620.19
2018-04-17T04:59:02.346Z,96631.06
2018-04-17T05:01:31.939Z,96631.25
2018-04-17T05:04:01.565Z,96635.21
2018-04-17T05:06:31.171Z,96636.83
2018-04-17T05:09:00.769Z,96638.69
2018-04-17T05:11:30.373Z,96641.02
2018-04-17T05:13:59.733Z,96642.42
2018-04-17T05:16:28.992Z,96644.75
2018-04-17T05:18:58.501Z,96653.55
2018-04-17T05:21:28.013Z,96654.30
2018-04-17T05:23:57.551Z,96658.83
2018-04-17T05:26:27.235Z,96663.28
2018-04-17T05:28:56.736Z,96665.08
2018-04-17T05:31:26.250Z,96678.50
2018-04-17T05:33:55.770Z,96682.55
2018-04-17T05:36:25.288Z,96694.34
2018-04-17T05:38:54.824Z,96684.84
2018-04-17T05:41:24.344Z,96697.11
2018-04-17T05:43:53.858Z,96692.49
2018-04-17T05:46:23.361Z,96697.20
2018-04-17T05:48:52.932Z,96697.81
2018-04-17T05:51:22.832Z,96703.31
2018-04-17T05:53:52.922Z,96705.72
2018-04-17T05:56:22.438Z,96713.12
2018-04-17T05:58:51.718Z,96710.17
2018-04-17T06:01:20.999Z,96704.64
2018-04-17T06:03:50.518Z,96707.87
2018-04-17T06:06:20.039Z,96708.30
2018-04-17T06:08:49.552Z,96706.75
2018-04-17T06:11:19.054Z,96716.06
2018-04-17T06:13:48.606Z,96711.94
2018-04-17T06:16:18.118Z,96723.39
2018-04-17T06:18:47.647Z,96722.83
2018-04-17T06:21:17.156Z,96727.25
2018-04-17T06:23:46.704Z,96731.44
2018-04-17T06:26:16.225Z,96734.62
2018-04-17T06:28:46.128Z,96726.89
2018-04-17T06:31:16.050Z,96740.64
2018-04-17T06:33:45.943Z,96733.95
2018-04-17T06:36:15.448Z,96729.28
2018-04-17T06:38:44.958Z,96739.85
2018-04-17T06:41:14.467Z,96738.88
2018-04-17T06:43:43.755Z,96731.52
2018-04-17T06:46:13.260Z,96737.98
2018-04-17T06:48:42.765Z,96744.69
2018-04-17T06:51:12.288Z,96742.02
2018-04-17T06:53:41.997Z,96744.39
2018-04-17T06:56:11.499Z,96753.66
2018-04-17T06:58:41.010Z,96756.77
2018-04-17T07:01:10.514Z,96761.95
2018-04-17T07:03:40.019Z,96763.72
2018-04-17T07:06:09.528Z,96766.90
2018-04-17T07:08:39.024Z,96769.91
2018-04-17T07:11:08.527Z,96774.34
2018-04-17T07:13:38.064Z,96778.19
2018-04-17T07:16:07.992Z,96774.95
2018-04-17T07:18:37.495Z,96776.54
2018-04-17T07:21:06.668Z,96773.27
2018-04-17T07:23:36.603Z,96778.11
2018-04-17T07:26:06.286Z,96781.98
2018-04-17T07:28:35.803Z,96773.61
2018-04-17T07:31:05.720Z,96781.98
2018-04-17T07:33:35.619Z,96782.31
2018-04-17T07:36:05.176Z,96781.48
2018-04-17T07:38:34.688Z,96785.75
2018-04-17T07:41:03.970Z,96794.17
2018-04-17T07:43:33.475Z,96792.41
2018-04-17T07:46:03.010Z,96792.63
2018-04-17T07:48:46.505Z,96804.16
2018-04-17T07:51:16.419Z,96804.15
2018-04-17T07:53:46.324Z,96807.13
2018-04-17T07:56:16.021Z,96814.50
2018-04-17T07:58:45.518Z,96813.78
2018-04-17T08:01:15.033Z,96813.17
2018-04-17T08:03:44.541Z,96809.08
2018-04-17T08:06:14.044Z,96815.88
2018-04-17T08:08:43.545Z,96809.80
2018-04-17T08:11:13.051Z,96814.56
2018-04-17T08:13:42.564Z,96818.56
2018-04-17T08:16:12.070Z,96822.59
2018-04-17T08:18:41.576Z,96811.19
2018-04-17T08:21:11.084Z,96818.92
2018-04-17T08:23:40.604Z,96822.11
2018-04-17T08:26:10.498Z,96829.48
2018-04-17T08:28:40.014Z,96835.17
2018-04-17T08:31:09.924Z,96838.83
2018-04-17T08:33:39.635Z,96842.52
2018-04-17T08:36:09.144Z,96844.13
2018-04-17T08:38:38.645Z,96849.45
2018-04-17T08:41:08.141Z,96851.44
2018-04-17T08:43:37.841Z,96863.22
2018-04-17T08:46:07.336Z,96859.30
2018-04-17T08:48:36.850Z,96868.34
2018-04-17T08:51:06.556Z,96868.28
2018-04-17T08:53:36.070Z,96866.33
2018-04-17T08:56:05.575Z,96866.30
2018-04-17T08:58:35.086Z,96872.45
2018-04-17T09:01:04.612Z,96872.41
2018-04-17T09:03:34.526Z,96872.05
2018-04-17T09:06:04.420Z,96863.81
2018-04-17T09:08:33.922Z,96873.41
2018-04-17T09:11:03.451Z,96868.53
2018-04-17T09:13:33.348Z,96869.11
2018-04-17T09:16:02.862Z,96869.30
2018-04-17T09:18:32.794Z,96862.50
2018-04-17T09:21:02.705Z,96860.66
2018-04-17T09:23:32.609Z,96858.63
2018-04-17T09:26:02.131Z,96856.05
2018-04-17T09:28:32.083Z,96866.59
2018-04-17T09:31:01.586Z,96862.17
2018-04-17T09:33:31.099Z,96865.84
2018-04-17T09:36:00.619Z,96859.51
2018-04-17T09:38:30.307Z,96860.73
2018-04-17T09:40:59.824Z,96866.53
2018-04-17T09:43:29.325Z,96871.09
2018-04-17T09:45:58.832Z,96868.63
2018-04-17T09:48:28.342Z,96858.84
2018-04-17T09:50:57.854Z,96867.20
2018-04-17T09:53:27.132Z,96860.37
2018-04-17T09:55:56.628Z,96863.83
2018-04-17T09:58:26.134Z,96861.77
2018-04-17T10:00:59.534Z,96864.31
2018-04-17T10:03:29.046Z,96860.66
2018-04-17T10:05:58.562Z,96862.27
2018-04-17T10:08:28.073Z,96853.65
2018-04-17T10:10:57.634Z,96868.97
2018-04-17T10:13:27.552Z,96865.20
2018-04-17T10:15:57.462Z,96860.18
2018-04-17T10:18:27.358Z,96857.02
2018-04-17T10:20:56.884Z,96860.38
2018-04-17T10:23:26.899Z,96857.91
2018-04-17T10:25:56.822Z,96855.44
2018-04-17T10:28:26.726Z,96848.73
2018-04-17T10:30:56.675Z,96847.14
2018-04-17T10:33:26.170Z,96843.38
2018-04-17T10:35:55.674Z,96834.58
2018-04-17T10:38:25.169Z,96835.16
2018-04-17T10:40:55.085Z,96835.53
2018-04-17T10:43:25.016Z,96836.64
2018-04-17T10:45:54.525Z,96849.16
2018-04-17T10:48:24.027Z,96844.84
2018-04-17T10:50:53.727Z,96831.17
2018-04-17T10:53:23.631Z,96834.17
2018-04-17T10:55:53.517Z,96826.42
2018-04-17T10:58:23.006Z,96847.94
2018-04-17T11:00:52.520Z,96834.62
2018-04-17T11:03:22.045Z,96832.44
2018-04-17T11:05:51.736Z,96833.98
2018-04-17T11:08:21.477Z,96834.12
2018-04-17T11:10:51.026Z,96829.87
2018-04-17T11:13:20.531Z,96834.42
2018-04-17T11:15:50.056Z,96837.17
2018-04-17T11:18:19.556Z,96845.61
2018-04-17T11:20:49.057Z,96844.92
2018-04-17T11:23:18.556Z,96842.69
2018-04-17T11:25:48.054Z,96859.44
2018-04-17T11:28:17.562Z,96838.95
2018-04-17T11:30:47.066Z,96833.47
2018-04-17T11:33:16.579Z,96847.39
2018-04-17T11:35:46.974Z,96845.70
2018-04-17T11:38:16.864Z,96851.42
2018-04-17T11:40:46.370Z,96842.95
2018-04-17T11:43:15.641Z,96860.94
2018-04-17T11:45:45.145Z,96859.90
2018-04-17T11:48:14.628Z,96853.03
2018-04-17T11:50:44.157Z,96856.30
2018-04-17T11:53:13.648Z,96841.88
2018-04-17T11:55:43.146Z,96842.02
2018-04-17T11:58:12.633Z,96830.96
2018-04-17T12:00:42.138Z,96841.12
2018-04-17T12:03:12.052Z,96844.63
2018-04-17T12:05:42.111Z,96833.52
2018-04-17T12:08:11.600Z,96837.63
2018-04-17T12:10:40.867Z,96839.14
2018-04-17T12:13:10.535Z,96828.32
2018-04-17T12:15:40.073Z,96844.16
2018-04-17T12:18:09.574Z,96837.65
2018-04-17T12:20:39.173Z,96842.72
2018-04-17T12:23:09.224Z,96838.93
2018-04-17T12:25:38.726Z,96839.47
2018-04-17T12:28:08.795Z,96834.02
2018-04-17T12:30:39.237Z,96843.48
2018-04-17T12:33:08.729Z,96833.89
2018-04-17T12:35:39.213Z,96827.02
2018-04-17T12:38:09.261Z,96868.63
2018-04-17T12:40:39.324Z,96841.48
2018-04-17T12:43:09.387Z,96837.20
2018-04-17T12:45:39.483Z,96820.64
2018-04-17T12:48:09.538Z,96832.11
2018-04-17T12:50:39.588Z,96828.37
2018-04-17T12:53:09.642Z,96832.91
2018-04-17T12:55:39.704Z,96827.91
2018-04-17T12:58:10.338Z,96823.09
2018-04-17T13:00:40.800Z,96835.03
2018-04-17T13:03:11.058Z,96831.25
2018-04-17T13:05:41.115Z,96842.23
2018-04-17T13:08:11.174Z,96838.34
2018-04-17T13:10:41.232Z,96840.06
2018-04-17T13:13:11.278Z,96828.66
2018-04-17T13:15:41.385Z,96825.77
2018-04-17T13:18:11.600Z,96823.14
2018-04-17T13:20:42.251Z,96826.03
2018-04-17T13:23:12.698Z,96819.16
2018-04-17T13:25:42.765Z,96821.45
2018-04-17T13:28:12.811Z,96825.89
2018-04-17T13:30:43.254Z,96826.30
2018-04-17T13:33:13.289Z,96826.17
2018-04-17T13:35:43.343Z,96801.88
2018-04-17T13:38:13.409Z,96811.61
2018-04-17T13:40:43.457Z,96804.97
2018-04-17T13:43:13.514Z,96810.92
2018-04-17T13:45:43.561Z,96829.73
2018-04-17T13:48:13.609Z,96802.95
2018-04-17T13:50:43.663Z,96812.23
2018-04-17T13:53:13.719Z,96816.30
2018-04-17T13:55:43.783Z,96799.56
2018-04-17T13:58:13.825Z,96797.02
2018-04-17T14:00:43.874Z,96815.19
2018-04-17T14:03:13.928Z,96809.04
2018-04-17T14:05:43.991Z,96801.16
2018-04-17T14:08:14.438Z,96806.53
2018-04-17T14:10:44.724Z,96798.84
2018-04-17T14:13:14.781Z,96809.31
2018-04-17T14:15:45.474Z,96800.55
2018-04-17T14:18:15.513Z,96804.26
2018-04-17T14:20:46.065Z,96801.40
2018-04-17T14:23:16.139Z,96799.59
2018-04-17T14:25:46.209Z,96797.81
2018-04-17T14:28:16.270Z,96800.30
2018-04-17T14:30:46.314Z,96798.63
2018-04-17T14:33:16.781Z,96805.88
2018-04-17T14:35:46.529Z,96802.07
2018-04-17T14:38:16.574Z,96799.05
2018-04-17T14:40:47.034Z,96800.69
2018-04-17T14:43:17.668Z,96797.13
2018-04-17T14:45:47.745Z,96804.77
2018-04-17T14:48:18.193Z,96806.14
2018-04-17T14:50:48.007Z,96800.31
2018-04-17T14:53:18.045Z,96817.47
2018-04-17T14:55:48.119Z,96803.67
2018-04-17T14:58:18.559Z,96804.78
2018-04-17T15:00:49.005Z,96806.55
2018-04-17T15:03:19.069Z,96807.55
2018-04-17T15:05:49.163Z,96802.52
2018-04-17T15:08:19.231Z,96804.20
2018-04-17T15:10:49.312Z,96800.33
2018-04-17T15:13:19.364Z,96803.86
2018-04-17T15:15:49.427Z,96798.63
2018-04-17T15:18:19.485Z,96798.61
2018-04-17T15:20:49.551Z,96803.05
2018-04-17T15:23:19.798Z,96796.57
2018-04-17T15:25:49.867Z,96794.06
2018-04-17T15:28:20.317Z,96802.33
2018-04-17T15:30:50.373Z,96796.45
2018-04-17T15:33:20.432Z,96804.34
2018-04-17T15:35:50.879Z,96803.92
2018-04-17T15:38:20.981Z,96807.66
2018-04-17T15:40:51.197Z,96807.66
2018-04-17T15:43:21.251Z,96818.52
2018-04-17T15:45:51.331Z,96814.84
2018-04-17T15:48:21.072Z,96814.68
2018-04-17T15:50:51.357Z,96823.91
2018-04-17T15:53:21.169Z,96816.42
2018-04-17T15:55:51.279Z,96814.39
2018-04-17T15:58:21.332Z,96812.50
2018-04-17T16:00:51.791Z,96819.55
2018-04-17T16:03:21.879Z,96819.78
2018-04-17T16:05:52.125Z,96817.91
2018-04-17T16:08:22.191Z,96821.48
2018-04-17T16:10:52.263Z,96833.66
2018-04-17T16:13:22.332Z,96829.83
2018-04-17T16:15:52.389Z,96822.56
2018-04-17T16:18:22.451Z,96826.97
2018-04-17T16:20:52.508Z,96822.63
2018-04-17T16:23:22.885Z,96823.59
2018-04-17T16:25:52.942Z,96824.55
2018-04-17T16:28:23.011Z,96830.37
2018-04-17T16:30:53.078Z,96827.27
2018-04-17T16:33:23.157Z,96830.73
2018-04-17T16:35:53.219Z,96833.62
2018-04-17T16:38:23.280Z,96838.58
2018-04-17T16:40:53.124Z,96836.47
2018-04-17T16:43:23.178Z,96830.63
2018-04-17T16:45:52.678Z,96837.22
2018-04-17T16:48:22.744Z,96840.83
2018-04-17T16:50:52.808Z,96841.38
2018-04-17T16:53:22.880Z,96847.58
2018-04-17T16:55:52.945Z,96847.77
2018-04-17T16:58:23.024Z,96858.80
2018-04-17T17:00:52.912Z,96853.84
2018-04-17T17:03:22.973Z,96856.22
2018-04-17T17:05:53.029Z,96854.00
2018-04-17T17:08:22.530Z,96855.23
2018-04-17T17:10:51.802Z,96860.06
2018-04-17T17:13:21.856Z,96860.17
2018-04-17T17:15:51.383Z,96864.21
2018-04-17T17:18:20.887Z,96861.03
2018-04-17T17:20:50.396Z,96868.36
2018-04-17T17:23:19.895Z,96869.33
2018-04-17T17:25:49.405Z,96871.86
2018-04-17T17:28:18.920Z,96873.64
2018-04-17T17:30:49.004Z,96876.85
2018-04-17T17:33:19.476Z,96890.97
2018-04-17T17:35:49.390Z,96882.14
2018-04-17T17:38:18.945Z,96890.17
2018-04-17T17:40:48.623Z,96897.74
2018-04-17T17:43:18.294Z,96899.03
2018-04-17T17:45:47.782Z,96900.81
2018-04-17T17:48:17.277Z,96900.53
2018-04-17T17:50:46.778Z,96901.64
2018-04-17T17:53:16.270Z,96902.42
2018-04-17T17:55:45.792Z,96911.73
2018-04-17T17:58:15.298Z,96911.40
2018-04-17T18:00:44.564Z,96920.88
2018-04-17T18:03:14.468Z,96922.77
2018-04-17T18:05:44.174Z,96927.95
2018-04-17T18:08:13.670Z,96923.75
2018-04-17T18:10:43.171Z,96927.16
2018-04-17T18:13:12.712Z,96928.10
2018-04-17T18:15:42.376Z,96929.96
2018-04-17T18:18:11.661Z,96938.06
2018-04-17T18:20:41.176Z,96935.73
2018-04-17T18:23:10.678Z,96946.66
2018-04-17T18:25:40.177Z,96942.62
2018-04-17T18:28:09.702Z,96954.73
2018-04-17T18:30:39.014Z,96953.06
2018-04-17T18:33:08.516Z,96957.80
2018-04-17T18:35:38.011Z,96959.22
2018-04-17T18:38:07.293Z,96958.52
2018-04-17T18:40:36.811Z,96968.84
2018-04-17T18:43:06.318Z,96961.23
2018-04-17T18:45:35.829Z,96969.54
2018-04-17T18:48:05.333Z,96982.69
2018-04-17T18:50:34.842Z,96989.52
2018-04-17T18:53:04.352Z,96986.72
2018-04-17T18:55:33.853Z,96991.69
2018-04-17T18:58:03.355Z,96994.64
2018-04-17T19:00:32.851Z,96998.64
2018-04-17T19:03:02.351Z,97003.63
2018-04-17T19:05:31.853Z,97007.66
2018-04-17T19:08:01.365Z,97009.75
2018-04-17T19:10:30.653Z,97013.72
2018-04-17T19:13:00.187Z,97021.79
2018-04-17T19:15:29.700Z,97025.05
2018-04-17T19:17:59.200Z,97031.84
2018-04-17T19:20:28.698Z,97034.80
2018-04-17T19:22:58.198Z,97036.44
2018-04-17T19:25:27.717Z,97038.63
2018-04-17T19:27:57.231Z,97050.03
2018-04-17T19:30:26.520Z,97052.33
2018-04-17T19:32:55.837Z,97054.73
2018-04-17T19:35:25.506Z,97055.70
2018-04-17T19:37:55.029Z,97049.25
2018-04-17T19:40:24.598Z,97054.54
2018-04-17T19:42:53.914Z,97053.66
2018-04-17T19:45:23.517Z,97057.63
2018-04-17T19:47:53.173Z,97065.91
2018-04-17T19:50:22.670Z,97069.23
2018-04-17T19:52:52.209Z,97074.41
2018-04-17T19:55:22.107Z,97067.96
2018-04-17T19:57:51.599Z,97075.02
2018-04-17T20:00:21.107Z,97078.64
2018-04-17T20:02:50.620Z,97081.01
2018-04-17T20:05:20.172Z,97087.72
2018-04-17T20:07:49.671Z,97088.74
2018-04-17T20:10:19.174Z,97083.83
2018-04-17T20:12:48.692Z,97090.55
2018-04-17T20:15:18.204Z,97085.45
2018-04-17T20:17:47.711Z,97087.63
2018-04-17T20:20:17.245Z,97086.89
2018-04-17T20:22:46.739Z,97091.05
2018-04-17T20:25:16.249Z,97089.51
2018-04-17T20:27:45.762Z,97092.41
2018-04-17T20:30:15.275Z,97089.88
2018-04-17T20:32:45.451Z,97088.36
2018-04-17T20:35:14.963Z,97090.51
2018-04-17T20:37:44.457Z,97089.30
2018-04-17T20:40:13.747Z,97087.33
2018-04-17T20:42:43.255Z,97086.77
2018-04-17T20:45:12.521Z,97088.11
2018-04-17T20:47:42.013Z,97089.08
2018-04-17T20:50:11.315Z,97083.17
2018-04-17T20:52:40.597Z,97081.39
2018-04-17T20:55:09.877Z,97081.78
2018-04-17T20:57:39.150Z,97091.03
2018-04-17T21:00:09.075Z,97086.31
2018-04-17T21:02:38.575Z,97082.39
2018-04-17T21:05:08.465Z,97091.09
2018-04-17T21:07:37.994Z,97090.53
2018-04-17T21:10:07.554Z,97088.98
2018-04-17T21:12:36.821Z,97088.97
2018-04-17T21:15:06.339Z,97088.97
2018-04-17T21:17:35.832Z,97087.78
2018-04-17T21:20:05.355Z,97094.50
2018-04-17T21:22:34.623Z,97093.13
2018-04-17T21:25:04.283Z,97089.55
2018-04-17T21:27:33.795Z,97098.41
2018-04-17T21:30:03.303Z,97098.20
2018-04-17T21:32:32.803Z,97095.30
2018-04-17T21:35:02.312Z,97094.88
2018-04-17T21:37:31.825Z,97095.89
2018-04-17T21:40:01.082Z,97100.38
2018-04-17T21:42:30.583Z,97097.86
2018-04-17T21:45:00.301Z,97105.48
2018-04-17T21:47:29.811Z,97102.94
2018-04-17T21:49:59.303Z,97105.09
2018-04-17T21:52:28.795Z,97104.70
2018-04-17T21:54:58.316Z,97102.35
2018-04-17T21:57:27.847Z,97106.08
2018-04-17T21:59:57.547Z,97108.23
2018-04-17T22:02:27.071Z,97114.66
2018-04-17T22:04:56.573Z,97116.20
2018-04-17T22:07:26.069Z,97121.08
2018-04-17T22:09:55.586Z,97123.00
2018-04-17T22:12:25.118Z,97123.58
2018-04-17T22:14:54.621Z,97127.50
2018-04-17T22:17:24.136Z,97127.72
2018-04-17T22:19:53.416Z,97130.18
2018-04-17T22:22:22.685Z,97132.32
2018-04-17T22:24:51.951Z,97132.77
2018-04-17T22:27:21.877Z,97132.76
2018-04-17T22:29:51.382Z,97127.50
2018-04-17T22:32:20.569Z,97133.36
2018-04-17T22:34:50.461Z,97121.83
2018-04-17T22:37:19.745Z,97119.50
2018-04-17T22:39:49.051Z,97123.03
2018-04-17T22:42:18.333Z,97122.56
2018-04-17T22:44:47.653Z,97128.87
2018-04-17T22:47:16.963Z,97128.59
2018-04-17T22:49:46.234Z,97131.30
2018-04-17T22:52:15.517Z,97129.44
2018-04-17T22:54:45.100Z,97137.10
2018-04-17T22:57:14.813Z,97136.28
2018-04-17T22:59:44.108Z,97134.48
2018-04-17T23:02:14.030Z,97142.44
2018-04-17T23:04:43.948Z,97141.03
2018-04-17T23:07:13.834Z,97141.40
2018-04-17T23:09:43.353Z,97136.50
2018-04-17T23:12:13.570Z,97141.25
2018-04-17T23:14:43.486Z,97141.18
2018-04-17T23:17:13.221Z,97143.66
2018-04-17T23:19:42.731Z,97145.86
2018-04-17T23:22:12.124Z,97149.50
2018-04-17T23:24:42.047Z,97144.56
2018-04-17T23:27:11.559Z,97151.33
2018-04-17T23:29:41.094Z,97147.36
2018-04-17T23:32:10.630Z,97158.05
2018-04-17T23:34:40.560Z,97159.77
2018-04-17T23:37:10.496Z,97166.30
2018-04-17T23:39:39.331Z,97166.27
2018-04-17T23:42:08.845Z,97173.02
2018-04-17T23:44:38.395Z,97171.99
2018-04-17T23:47:08.340Z,97165.63
2018-04-17T23:49:38.097Z,97171.51
2018-04-17T23:52:07.713Z,97171.45
2018-04-17T23:54:37.629Z,97170.21
2018-04-17T23:57:07.573Z,97169.66
2018-04-17T23:59:37.109Z,97168.17
